createdAt,value
2023-03-10T00:00:34.283Z,2.58
2023-03-10T00:03:00.689Z,2.97
2023-03-10T00:05:27.125Z,4.82
2023-03-10T00:07:53.573Z,3.88
2023-03-10T00:10:19.995Z,2.58
2023-03-10T00:12:46.329Z,3.20
2023-03-10T00:15:13.004Z,3.75
2023-03-10T00:17:39.376Z,2.35
2023-03-10T00:20:08.004Z,2.92
2023-03-10T00:22:35.202Z,1.95
2023-03-10T00:25:01.597Z,1.45
2023-03-10T00:27:27.947Z,3.53
2023-03-10T00:29:54.277Z,3.15
2023-03-10T00:32:20.701Z,1.98
2023-03-10T00:34:47.147Z,1.88
2023-03-10T00:37:13.564Z,3.60
2023-03-10T00:39:39.970Z,1.70
2023-03-10T00:42:06.453Z,1.00
2023-03-10T00:44:33.305Z,1.55
2023-03-10T00:46:59.678Z,3.85
2023-03-10T00:49:26.097Z,3.20
2023-03-10T00:51:52.682Z,1.40
2023-03-10T00:54:19.025Z,1.48
2023-03-10T00:56:45.386Z,1.02
2023-03-10T00:59:12.541Z,2.42
2023-03-10T01:01:40.860Z,0.90
2023-03-10T01:04:14.357Z,1.98
2023-03-10T01:06:40.999Z,3.42
2023-03-10T01:09:08.049Z,1.85
2023-03-10T01:11:35.016Z,2.03
2023-03-10T01:14:03.324Z,1.83
2023-03-10T01:16:30.226Z,2.50
2023-03-10T01:18:57.672Z,3.20
2023-03-10T01:21:26.331Z,2.00
2023-03-10T01:23:52.868Z,1.55
2023-03-10T01:26:19.403Z,2.00
2023-03-10T01:28:48.324Z,1.85
2023-03-10T01:31:15.427Z,1.40
2023-03-10T01:33:42.840Z,2.80
2023-03-10T01:36:15.880Z,1.83
2023-03-10T01:38:43.065Z,2.03
2023-03-10T01:41:09.764Z,3.42
2023-03-10T01:43:44.281Z,2.88
2023-03-10T01:46:38.432Z,1.77
2023-03-10T01:49:13.849Z,2.65
2023-03-10T01:51:42.758Z,1.23
2023-03-10T01:54:13.090Z,2.08
2023-03-10T01:56:39.827Z,1.23
2023-03-10T01:59:06.192Z,1.73
2023-03-10T02:01:32.921Z,1.95
2023-03-10T02:04:02.893Z,1.55
2023-03-10T02:06:29.680Z,1.73
2023-03-10T02:08:59.894Z,3.50
2023-03-10T02:11:26.403Z,1.70
2023-03-10T02:13:53.487Z,0.95
2023-03-10T02:16:20.401Z,1.42
2023-03-10T02:18:47.891Z,2.38
2023-03-10T02:21:26.416Z,2.35
2023-03-10T02:24:44.417Z,2.55
2023-03-10T02:27:19.278Z,1.67
2023-03-10T02:30:00.080Z,1.05
2023-03-10T02:32:29.022Z,3.08
2023-03-10T02:34:55.492Z,1.20
2023-03-10T02:37:25.411Z,0.73
2023-03-10T02:39:51.950Z,1.95
2023-03-10T02:42:19.197Z,2.60
2023-03-10T02:44:46.504Z,1.27
2023-03-10T02:47:13.268Z,1.30
2023-03-10T02:49:41.015Z,1.33
2023-03-10T02:52:12.735Z,3.28
2023-03-10T02:54:39.125Z,1.88
2023-03-10T02:57:05.544Z,1.73
2023-03-10T02:59:31.903Z,1.27
2023-03-10T03:01:58.326Z,1.48
2023-03-10T03:04:24.759Z,2.95
2023-03-10T03:06:51.146Z,1.10
2023-03-10T03:09:17.572Z,1.30
2023-03-10T03:11:44.001Z,1.50
2023-03-10T03:14:10.373Z,2.40
2023-03-10T03:16:36.960Z,1.50
2023-03-10T03:19:03.307Z,4.20
2023-03-10T03:21:30.884Z,2.20
2023-03-10T03:23:57.254Z,2.05
2023-03-10T03:26:25.505Z,1.55
2023-03-10T03:28:52.154Z,3.95
2023-03-10T03:31:21.451Z,3.95
2023-03-10T03:33:48.116Z,2.80
2023-03-10T03:36:14.749Z,3.60
2023-03-10T03:38:41.408Z,3.50
2023-03-10T03:41:08.454Z,2.30
2023-03-10T03:43:35.146Z,3.72
2023-03-10T03:46:01.648Z,3.17
2023-03-10T03:48:28.105Z,2.20
2023-03-10T03:50:54.465Z,3.03
2023-03-10T03:53:20.832Z,4.13
2023-03-10T03:55:47.219Z,1.67
2023-03-10T03:58:13.556Z,2.65
2023-03-10T04:00:40.718Z,3.90
2023-03-10T04:03:07.233Z,3.80
2023-03-10T04:05:33.839Z,3.72
2023-03-10T04:08:00.257Z,3.60
2023-03-10T04:10:29.428Z,6.07
2023-03-10T04:12:55.909Z,4.55
2023-03-10T04:15:22.275Z,3.15
2023-03-10T04:17:48.669Z,2.28
2023-03-10T04:20:15.551Z,2.40
2023-03-10T04:22:42.361Z,3.13
2023-03-10T04:25:09.140Z,3.65
2023-03-10T04:27:35.905Z,1.63
2023-03-10T04:30:02.598Z,1.90
2023-03-10T04:32:29.012Z,4.22
2023-03-10T04:34:55.425Z,1.85
2023-03-10T04:37:21.848Z,2.67
2023-03-10T04:39:48.319Z,2.97
2023-03-10T04:42:14.730Z,2.22
2023-03-10T04:44:41.108Z,2.92
2023-03-10T04:47:07.461Z,2.20
2023-03-10T04:49:33.862Z,5.65
2023-03-10T04:52:00.221Z,1.98
2023-03-10T04:54:26.601Z,5.80
2023-03-10T04:56:52.989Z,2.63
2023-03-10T04:59:21.401Z,3.95
2023-03-10T05:01:48.448Z,4.45
2023-03-10T05:04:15.064Z,4.15
2023-03-10T05:06:41.466Z,2.58
2023-03-10T05:09:07.958Z,2.88
2023-03-10T05:11:34.505Z,6.57
2023-03-10T05:14:01.499Z,3.05
2023-03-10T05:16:28.047Z,4.38
2023-03-10T05:18:54.784Z,3.92
2023-03-10T05:21:21.765Z,4.45
2023-03-10T05:23:48.731Z,5.32
2023-03-10T05:26:15.554Z,2.97
2023-03-10T05:28:42.081Z,5.07
2023-03-10T05:31:13.376Z,4.03
2023-03-10T05:33:40.056Z,4.85
2023-03-10T05:36:08.239Z,3.25
2023-03-10T05:38:35.393Z,4.82
2023-03-10T05:41:02.147Z,6.63
2023-03-10T05:43:28.534Z,7.70
2023-03-10T05:45:59.009Z,8.88
2023-03-10T05:48:26.194Z,5.18
2023-03-10T05:50:59.159Z,5.65
2023-03-10T05:53:25.703Z,4.82
2023-03-10T05:55:53.428Z,4.78
2023-03-10T05:58:19.806Z,9.65
2023-03-10T06:00:46.227Z,6.15
2023-03-10T06:03:12.622Z,5.75
2023-03-10T06:05:39.063Z,8.10
2023-03-10T06:08:05.652Z,4.10
2023-03-10T06:10:32.007Z,8.73
2023-03-10T06:12:58.371Z,6.07
2023-03-10T06:15:24.722Z,5.53
2023-03-10T06:17:51.040Z,6.80
2023-03-10T06:20:17.432Z,7.97
2023-03-10T06:22:43.814Z,8.95
2023-03-10T06:25:10.554Z,9.02
2023-03-10T06:27:37.021Z,6.70
2023-03-10T06:30:03.641Z,8.35
2023-03-10T06:32:30.007Z,10.00
2023-03-10T06:34:59.221Z,5.47
2023-03-10T06:37:25.624Z,8.40
2023-03-10T06:39:51.988Z,10.30
2023-03-10T06:42:18.329Z,6.25
2023-03-10T06:44:44.802Z,4.13
2023-03-10T06:47:11.379Z,7.40
2023-03-10T06:49:37.780Z,5.15
2023-03-10T06:52:04.420Z,9.45
2023-03-10T06:54:30.812Z,6.13
2023-03-10T06:56:57.336Z,4.38
2023-03-10T06:59:23.706Z,7.45
2023-03-10T07:01:50.045Z,7.75
2023-03-10T07:04:16.487Z,6.28
2023-03-10T07:06:42.848Z,8.80
2023-03-10T07:09:09.428Z,9.07
2023-03-10T07:11:36.194Z,6.28
2023-03-10T07:14:02.741Z,5.28
2023-03-10T07:16:29.111Z,11.70
2023-03-10T07:18:55.771Z,5.18
2023-03-10T07:21:22.156Z,7.55
2023-03-10T07:23:48.612Z,5.35
2023-03-10T07:26:15.923Z,8.02
2023-03-10T07:28:42.482Z,10.13
2023-03-10T07:31:11.504Z,4.47
2023-03-10T07:33:38.754Z,5.68
2023-03-10T07:36:07.960Z,6.40
2023-03-10T07:38:34.573Z,6.45
2023-03-10T07:41:02.146Z,9.27
2023-03-10T07:43:28.624Z,11.18
2023-03-10T07:45:55.582Z,9.25
2023-03-10T07:48:22.019Z,4.97
2023-03-10T07:50:56.016Z,9.95
2023-03-10T07:53:22.376Z,6.78
2023-03-10T07:55:48.723Z,7.18
2023-03-10T07:58:15.059Z,7.70
2023-03-10T08:00:41.465Z,10.65
2023-03-10T08:03:07.845Z,6.28
2023-03-10T08:05:34.376Z,4.45
2023-03-10T08:08:00.701Z,8.02
2023-03-10T08:10:27.089Z,6.13
2023-03-10T08:12:53.997Z,7.68
2023-03-10T08:15:20.357Z,7.20
2023-03-10T08:17:46.809Z,10.30
2023-03-10T08:20:13.269Z,11.27
2023-03-10T08:22:40.147Z,7.10
2023-03-10T08:25:06.756Z,7.70
2023-03-10T08:27:33.650Z,8.00
2023-03-10T08:30:00.019Z,8.55
2023-03-10T08:32:26.481Z,6.95
2023-03-10T08:34:52.892Z,8.90
2023-03-10T08:37:19.262Z,7.72
2023-03-10T08:39:46.493Z,9.18
2023-03-10T08:42:13.928Z,7.70
2023-03-10T08:44:40.839Z,9.02
2023-03-10T08:47:07.540Z,4.85
2023-03-10T08:49:34.025Z,8.07
2023-03-10T08:52:00.364Z,8.00
2023-03-10T08:54:26.883Z,7.80
2023-03-10T08:56:53.317Z,4.70
2023-03-10T08:59:20.578Z,5.25
2023-03-10T09:01:47.485Z,2.90
2023-03-10T09:04:14.112Z,2.28
2023-03-10T09:06:40.707Z,2.72
2023-03-10T09:09:08.404Z,4.68
2023-03-10T09:11:38.957Z,6.32
2023-03-10T09:14:05.920Z,6.63
2023-03-10T09:16:32.618Z,3.78
2023-03-10T09:18:59.655Z,3.55
2023-03-10T09:21:27.468Z,1.90
2023-03-10T09:23:54.131Z,1.80
2023-03-10T09:26:21.447Z,4.90
2023-03-10T09:28:50.780Z,1.30
2023-03-10T09:31:19.480Z,4.90
2023-03-10T09:33:48.302Z,1.98
2023-03-10T09:36:15.072Z,3.80
2023-03-10T09:38:42.034Z,5.47
2023-03-10T09:41:46.043Z,5.90
2023-03-10T09:44:51.028Z,3.25
2023-03-10T09:47:25.260Z,4.82
2023-03-10T09:50:19.145Z,6.18
2023-03-10T09:53:02.099Z,4.93
2023-03-10T09:55:47.371Z,5.93
2023-03-10T09:58:37.183Z,2.75
2023-03-10T10:01:04.748Z,5.68
2023-03-10T10:03:51.469Z,5.10
2023-03-10T10:06:27.997Z,8.20
2023-03-10T10:09:05.221Z,5.85
2023-03-10T10:11:31.796Z,3.70
2023-03-10T10:14:15.861Z,4.90
2023-03-10T10:17:19.089Z,9.85
2023-03-10T10:19:47.725Z,3.38
2023-03-10T10:22:34.400Z,2.97
2023-03-10T10:25:09.667Z,3.25
2023-03-10T10:27:41.273Z,3.38
2023-03-10T10:30:36.702Z,3.35
2023-03-10T10:33:04.411Z,6.10
2023-03-10T10:35:33.995Z,2.10
2023-03-10T10:38:06.322Z,3.47
2023-03-10T10:40:35.372Z,2.70
2023-03-10T10:43:05.793Z,3.33
2023-03-10T10:45:37.385Z,3.88
2023-03-10T10:48:04.433Z,3.08
2023-03-10T10:50:32.685Z,4.28
2023-03-10T10:53:18.197Z,2.05
2023-03-10T10:55:45.892Z,4.65
2023-03-10T10:58:36.098Z,5.07
2023-03-10T11:01:08.282Z,3.53
2023-03-10T11:03:38.451Z,3.65
2023-03-10T11:06:27.267Z,3.20
2023-03-10T11:09:03.455Z,5.60
2023-03-10T11:11:48.208Z,3.85
2023-03-10T11:14:39.852Z,2.70
2023-03-10T11:17:12.515Z,3.45
2023-03-10T11:19:59.215Z,3.63
2023-03-10T11:22:47.044Z,3.53
2023-03-10T11:25:35.392Z,2.67
2023-03-10T11:28:19.031Z,1.88
2023-03-10T11:30:57.770Z,2.73
2023-03-10T11:33:31.364Z,1.88
2023-03-10T11:36:17.056Z,2.30
2023-03-10T11:38:46.622Z,2.42
2023-03-10T11:41:16.465Z,2.03
2023-03-10T11:43:48.486Z,2.50
2023-03-10T11:46:27.518Z,1.20
2023-03-10T11:49:14.516Z,4.32
2023-03-10T11:51:46.431Z,2.15
2023-03-10T11:54:20.361Z,3.78
2023-03-10T11:56:49.032Z,0.95
2023-03-10T11:59:19.034Z,1.17
2023-03-10T12:02:07.031Z,2.58
2023-03-10T12:04:40.362Z,1.48
2023-03-10T12:07:26.890Z,2.47
2023-03-10T12:10:04.834Z,6.40
2023-03-10T12:12:33.898Z,2.67
2023-03-10T12:15:01.524Z,1.92
2023-03-10T12:17:28.564Z,0.70
2023-03-10T12:20:12.818Z,3.70
2023-03-10T12:22:46.977Z,2.13
2023-03-10T12:28:16.351Z,2.20
2023-03-10T12:31:02.103Z,2.40
2023-03-10T12:33:31.272Z,1.38
2023-03-10T12:36:03.552Z,2.25
2023-03-10T12:38:43.536Z,3.00
2023-03-10T12:41:10.446Z,2.10
2023-03-10T12:43:48.536Z,2.05
2023-03-10T12:46:19.588Z,1.70
2023-03-10T12:48:50.399Z,1.33
2023-03-10T12:51:22.560Z,2.47
2023-03-10T12:54:01.091Z,1.48
2023-03-10T12:56:33.714Z,2.05
2023-03-10T12:59:26.057Z,2.05
2023-03-10T13:01:56.125Z,1.55
2023-03-10T13:04:23.553Z,1.40
2023-03-10T13:06:49.909Z,2.10
2023-03-10T13:09:38.882Z,1.08
2023-03-10T13:12:30.804Z,1.00
2023-03-10T13:14:59.626Z,1.23
2023-03-10T13:17:31.574Z,2.75
2023-03-10T13:20:05.642Z,2.92
2023-03-10T13:25:04.810Z,2.25
2023-03-10T13:27:34.023Z,2.10
2023-03-10T13:30:05.426Z,3.03
2023-03-10T13:32:34.546Z,3.13
2023-03-10T13:35:16.354Z,0.95
2023-03-10T13:37:42.774Z,1.42
2023-03-10T13:40:10.924Z,2.50
2023-03-10T13:42:44.109Z,3.63
2023-03-10T13:45:21.766Z,3.20
2023-03-10T13:47:48.177Z,2.50
2023-03-10T13:50:15.925Z,3.35
2023-03-10T13:52:52.942Z,1.80
2023-03-10T13:55:19.285Z,1.65
2023-03-10T13:57:47.659Z,4.28
2023-03-10T14:00:20.358Z,2.08
2023-03-10T14:02:48.208Z,1.58
2023-03-10T14:05:37.450Z,2.28
2023-03-10T14:08:04.395Z,2.67
2023-03-10T14:10:30.794Z,3.47
2023-03-10T14:12:57.138Z,0.82
2023-03-10T14:15:29.075Z,2.03
2023-03-10T14:18:07.570Z,3.55
2023-03-10T14:20:46.531Z,3.78
2023-03-10T14:23:18.773Z,3.05
2023-03-10T14:25:46.082Z,2.08
2023-03-10T14:30:41.720Z,2.20
2023-03-10T14:33:13.336Z,2.08
2023-03-10T14:35:40.297Z,2.03
2023-03-10T14:38:06.828Z,2.15
2023-03-10T14:40:39.270Z,3.53
2023-03-10T14:43:05.833Z,2.70
2023-03-10T14:45:34.662Z,2.40
2023-03-10T14:48:15.595Z,1.15
2023-03-10T14:50:42.118Z,1.13
2023-03-10T14:53:10.137Z,6.30
2023-03-10T14:55:36.547Z,1.75
2023-03-10T14:58:04.386Z,0.68
2023-03-10T15:00:32.059Z,1.20
2023-03-10T15:02:58.645Z,1.20
2023-03-10T15:05:34.578Z,0.70
2023-03-10T15:08:11.620Z,0.98
2023-03-10T15:10:40.151Z,1.08
2023-03-10T15:13:06.575Z,0.80
2023-03-10T15:15:44.196Z,1.85
2023-03-10T15:18:12.446Z,1.35
2023-03-10T15:20:38.853Z,0.60
2023-03-10T15:23:05.383Z,1.17
2023-03-10T15:25:31.917Z,0.50
2023-03-10T15:27:58.375Z,2.05
2023-03-10T15:30:29.165Z,0.52
2023-03-10T15:32:55.765Z,0.47
2023-03-10T15:35:22.671Z,0.57
2023-03-10T15:37:49.798Z,0.75
2023-03-10T15:40:25.697Z,2.03
2023-03-10T15:42:52.746Z,0.88
2023-03-10T15:45:19.593Z,0.43
2023-03-10T15:47:46.450Z,0.57
2023-03-10T15:50:14.511Z,0.47
2023-03-10T15:52:49.161Z,0.50
2023-03-10T15:55:16.637Z,0.90
2023-03-10T15:57:44.166Z,0.50
2023-03-10T16:00:12.101Z,0.73
2023-03-10T16:02:38.741Z,0.30
2023-03-10T16:06:04.546Z,1.75
2023-03-10T16:08:36.963Z,0.50
2023-03-10T16:11:05.954Z,0.40
2023-03-10T16:13:32.399Z,1.02
2023-03-10T16:15:59.681Z,2.50
2023-03-10T16:18:26.174Z,1.50
2023-03-10T16:20:59.433Z,0.85
2023-03-10T16:23:27.202Z,0.63
2023-03-10T16:26:08.852Z,0.75
2023-03-10T16:28:37.073Z,0.60
2023-03-10T16:31:05.072Z,0.73
2023-03-10T16:33:32.090Z,0.63
2023-03-10T16:35:59.657Z,0.80
2023-03-10T16:38:26.383Z,1.40
2023-03-10T16:40:54.160Z,1.80
2023-03-10T16:43:21.564Z,1.15
2023-03-10T16:45:50.142Z,1.52
2023-03-10T16:48:18.624Z,0.70
2023-03-10T16:50:46.532Z,0.82
2023-03-10T16:53:13.448Z,0.65
2023-03-10T16:55:40.194Z,0.85
2023-03-10T16:58:06.767Z,4.00
2023-03-10T17:00:33.247Z,0.80
2023-03-10T17:02:59.871Z,0.80
2023-03-10T17:05:26.326Z,1.42
2023-03-10T17:07:56.040Z,0.60
2023-03-10T17:10:22.834Z,0.77
2023-03-10T17:12:49.246Z,0.88
2023-03-10T17:15:15.690Z,0.90
2023-03-10T17:17:42.160Z,2.47
2023-03-10T17:20:09.070Z,0.90
2023-03-10T17:22:37.791Z,1.23
2023-03-10T17:25:05.574Z,1.58
2023-03-10T17:27:31.941Z,0.90
2023-03-10T17:29:58.317Z,1.10
2023-03-10T17:32:24.764Z,2.10
2023-03-10T17:34:52.157Z,1.92
2023-03-10T17:37:19.135Z,1.80
2023-03-10T17:39:45.841Z,1.10
2023-03-10T17:42:12.189Z,2.58
2023-03-10T17:44:38.627Z,1.45
2023-03-10T17:47:05.180Z,1.15
2023-03-10T17:49:33.633Z,0.95
2023-03-10T17:52:00.064Z,0.93
2023-03-10T17:54:26.446Z,1.17
2023-03-10T17:56:52.993Z,1.90
2023-03-10T17:59:19.348Z,0.80
2023-03-10T18:01:46.224Z,0.82
2023-03-10T18:04:12.837Z,0.80
2023-03-10T18:06:39.158Z,1.02
2023-03-10T18:09:07.109Z,0.77
2023-03-10T18:11:34.222Z,1.90
2023-03-10T18:14:03.406Z,0.93
2023-03-10T18:16:32.425Z,0.70
2023-03-10T18:18:59.461Z,2.00
2023-03-10T18:21:27.005Z,0.68
2023-03-10T18:23:53.945Z,0.60
2023-03-10T18:26:23.849Z,0.60
2023-03-10T18:28:50.556Z,1.08
2023-03-10T18:31:19.401Z,1.77
2023-03-10T18:33:46.151Z,1.77
2023-03-10T18:36:14.576Z,3.58
2023-03-10T18:38:41.269Z,0.98
2023-03-10T18:41:07.648Z,0.88
2023-03-10T18:43:34.457Z,0.77
2023-03-10T18:46:01.527Z,0.70
2023-03-10T18:48:28.625Z,1.15
2023-03-10T18:50:56.925Z,1.17
2023-03-10T18:53:24.396Z,0.90
2023-03-10T18:55:51.115Z,1.63
2023-03-10T18:58:17.475Z,1.33
2023-03-10T19:00:43.968Z,1.15
2023-03-10T19:03:12.885Z,1.20
2023-03-10T19:05:40.084Z,1.40
2023-03-10T19:08:06.852Z,2.95
2023-03-10T19:10:33.204Z,1.48
2023-03-10T19:12:59.657Z,1.30
2023-03-10T19:15:26.066Z,1.60
2023-03-10T19:17:52.515Z,1.52
2023-03-10T19:20:19.020Z,1.35
2023-03-10T19:22:50.380Z,2.05
2023-03-10T19:25:18.131Z,1.88
2023-03-10T19:27:44.604Z,2.10
2023-03-10T19:30:14.251Z,8.23
2023-03-10T19:32:40.745Z,3.15
2023-03-10T19:35:10.634Z,2.50
2023-03-10T19:37:38.329Z,2.92
2023-03-10T19:40:08.289Z,2.70
2023-03-10T19:42:35.444Z,3.72
2023-03-10T19:45:02.004Z,2.90
2023-03-10T19:47:31.666Z,3.65
2023-03-10T19:49:59.648Z,3.58
2023-03-10T19:52:26.170Z,4.13
2023-03-10T19:54:52.529Z,4.93
2023-03-10T19:57:18.983Z,4.40
2023-03-10T19:59:45.840Z,4.10
2023-03-10T20:02:14.870Z,4.78
2023-03-10T20:04:42.029Z,6.75
2023-03-10T20:07:08.601Z,3.95
2023-03-10T20:09:35.661Z,4.05
2023-03-10T20:12:02.576Z,4.47
2023-03-10T20:14:28.989Z,4.60
2023-03-10T20:16:55.449Z,4.30
2023-03-10T20:19:22.855Z,3.78
2023-03-10T20:21:50.379Z,5.10
2023-03-10T20:24:17.548Z,3.55
2023-03-10T20:26:44.018Z,3.85
2023-03-10T20:29:10.994Z,3.90
2023-03-10T20:31:37.737Z,4.20
2023-03-10T20:34:05.834Z,3.22
2023-03-10T20:36:32.263Z,3.50
2023-03-10T20:38:59.385Z,2.95
2023-03-10T20:41:25.786Z,4.28
2023-03-10T20:43:53.342Z,3.72
2023-03-10T20:46:19.967Z,3.75
2023-03-10T20:48:49.784Z,4.00
2023-03-10T20:51:18.650Z,3.90
2023-03-10T20:53:45.334Z,3.67
2023-03-10T20:56:12.232Z,3.53
2023-03-10T20:58:38.732Z,3.95
2023-03-10T21:01:05.573Z,3.42
2023-03-10T21:03:32.042Z,3.30
2023-03-10T21:05:58.498Z,3.33
2023-03-10T21:08:25.054Z,3.50
2023-03-10T21:10:52.107Z,2.95
2023-03-10T21:13:18.497Z,2.83
2023-03-10T21:15:44.899Z,3.45
2023-03-10T21:18:11.264Z,3.30
2023-03-10T21:20:37.674Z,3.20
2023-03-10T21:23:04.120Z,3.65
2023-03-10T21:25:30.931Z,2.60
2023-03-10T21:27:59.739Z,4.07
2023-03-10T21:30:31.661Z,3.25
2023-03-10T21:32:58.713Z,2.80
2023-03-10T21:35:26.097Z,2.70
2023-03-10T21:37:52.558Z,2.58
2023-03-10T21:40:20.269Z,3.63
2023-03-10T21:42:48.085Z,2.38
2023-03-10T21:45:16.827Z,3.70
2023-03-10T21:47:43.761Z,3.13
2023-03-10T21:50:11.480Z,2.10
2023-03-10T21:52:39.645Z,2.92
2023-03-10T21:55:07.161Z,2.03
2023-03-10T21:57:33.557Z,2.30
2023-03-10T22:00:00.139Z,2.03
2023-03-10T22:02:29.082Z,2.58
2023-03-10T22:04:55.772Z,1.73
2023-03-10T22:07:22.232Z,1.90
2023-03-10T22:09:48.657Z,2.28
2023-03-10T22:12:15.824Z,1.80
2023-03-10T22:14:42.769Z,4.55
2023-03-10T22:17:09.126Z,3.05
2023-03-10T22:19:35.578Z,2.00
2023-03-10T22:22:02.558Z,2.40
2023-03-10T22:24:28.952Z,2.33
2023-03-10T22:26:55.310Z,2.28
2023-03-10T22:29:21.699Z,4.75
2023-03-10T22:31:51.702Z,2.42
2023-03-10T22:34:18.140Z,1.92
2023-03-10T22:36:44.481Z,2.20
2023-03-10T22:39:10.862Z,2.00
2023-03-10T22:41:38.693Z,1.92
2023-03-10T22:44:05.378Z,1.80
2023-03-10T22:46:32.407Z,3.33
2023-03-10T22:48:59.045Z,2.33
2023-03-10T22:51:25.419Z,2.35
2023-03-10T22:53:51.921Z,2.42
2023-03-10T22:56:18.369Z,2.60
2023-03-10T22:58:44.790Z,1.80
2023-03-10T23:01:11.223Z,2.45
2023-03-10T23:03:37.642Z,2.50
2023-03-10T23:06:05.777Z,2.30
2023-03-10T23:08:32.294Z,2.22
2023-03-10T23:11:01.718Z,2.17
2023-03-10T23:13:28.182Z,1.88
2023-03-10T23:15:54.595Z,5.07
2023-03-10T23:18:21.350Z,1.92
2023-03-10T23:20:48.959Z,1.65
2023-03-10T23:23:16.270Z,1.90
2023-03-10T23:25:46.731Z,1.98
2023-03-10T23:28:13.463Z,1.67
2023-03-10T23:30:41.966Z,1.55
2023-03-10T23:33:09.915Z,3.08
2023-03-10T23:35:36.399Z,1.70
2023-03-10T23:38:05.411Z,6.38
2023-03-10T23:40:32.697Z,1.40
2023-03-10T23:43:00.318Z,2.80
2023-03-10T23:45:28.343Z,1.73
2023-03-10T23:47:58.511Z,1.70
2023-03-10T23:50:28.397Z,1.88
2023-03-10T23:52:55.087Z,1.48
2023-03-10T23:55:24.644Z,1.63
2023-03-10T23:57:51.111Z,2.75
